West Palm Beach, FL

11:13 PM EST en Enero 27, 2015 (GMT -0500)
Palm Beach, FL | Change Station
CLOSE
Current Station
Estación meteorológica personal
Location: Palm Beach, FL
Altura: 8 ft
Estaciones meteorológicas cercanas

Alt 8 ft 26.71 °N, 80.04 °W | Updated 8 seconds ago

Scattered Clouds
Nubes dispersas
58.6 ° F
Sensación térmica 58.6 ° F
N
0.9
Viento Variable Viento desde Oeste
Gusts 6.0 mph

Hoy
Alta -- | Baja -- ° F
--% Posibilidad de precipitaciones
Ayer
Alta -- | Baja -- ° F
Precip. -- pul
7:07 AM 5:58 PM
Cuarto creciente, 60% visible
Presión 30.03 pul
Visibilidad 10.0 Millas
Nubes Nubes dispersas 3900 ft
Punto de rocío 52 ° F
Humedad 79%
Precipitaciones 0.00 pul
Espesor de la nieve No disponible.
UV 0 de una escala de 12
Polen 8.50 de una escala de 12
Calidad del aire No disponible.
Flu Activity No disponible.
METAR KPBI 280353Z 25006KT 10SM SCT039 14/11 A3003 RMK AO2 SLP168 T01440106

More Conditions Fewer Conditions

Presión 30.03 pul
Visibilidad 10.0 Millas
Nubes Nubes dispersas 3900 ft
Punto de rocío 52 ° F
Humedad 79%
Precipitaciones 0.00 pul
Espesor de la nieve No disponible.
UV 0 de una escala de 12
Polen 8.50 de una escala de 12
Calidad del aire No disponible.
Flu Activity No disponible.
METAR KPBI 280353Z 25006KT 10SM SCT039 14/11 A3003 RMK AO2 SLP168 T01440106

More Conditions Fewer Conditions

10-Day Weather Forecast

Almanac

Astronomía

Jan. 27, 2015 Salida Puesta
Hora real
Crepúsculo civil
Crepúsculo náutico
Crepúsculo astronómico
Luna
Horas de luz
Horas de luz
Tomorrow will be .
, % of the Moon is Illuminated

Extremos de hoy

Máximos del estado Bajos del estado

Community

WunderPhotos

Upload Photos

1,791,086 ¡fotos cargadas!

WunderBlogs® & News

Nearby

Calidad del aire

  Calidad del aire Índice AQ Contaminante
Not available.

Grosos de nieve

Estación Profundido Altura

Actividad de terremotos

Ciudad Distance Mag. Tiempo y dato
Magnitud mínima muestra es 2,5.

Temperaturas de aguas costeras

Lugar Temperatura

Estaciones meteorológicas cercanas